Time;durP1;ratioP1;P1;durP2;ratioP2;P2;SDS_P1;SDS_P2;PMS_P1;PMS_P2;Temp;Humidity;BMP_temperature;BMP_pressure;BME280_temperature;BME280_humidity;BME280_pressure;Samples;Min_cycle;Max_cycle;Signal;HPM_P1;HPM_P2
2023/09/12 00:00:12;;;;;;;30.75;18.42;;;;;;;;;;6259343;28;20307;-71
2023/09/12 00:03:22;;;;;;;26.48;17.30;;;;;;;;;;6274174;28;20292;-68
2023/09/12 00:06:27;;;;;;;31.55;17.50;;;;;;;;;;6259386;28;20299;-69
2023/09/12 00:09:31;;;;;;;29.30;17.05;;;;;;;;;;6259093;28;20289;-69
2023/09/12 00:12:35;;;;;;;32.08;17.58;;;;;;;;;;6259497;28;20323;-69
2023/09/12 00:15:39;;;;;;;26.00;16.60;;;;;;;;;;6259347;28;20252;-72
2023/09/12 00:18:43;;;;;;;32.20;17.60;;;;;;;;;;6259140;28;20296;-69
2023/09/12 00:21:49;;;;;;;30.05;17.33;;;;;;;;;;6259614;28;20303;-70
2023/09/12 00:24:52;;;;;;;30.42;16.92;;;;;;;;;;6259170;28;20291;-70
2023/09/12 00:27:56;;;;;;;30.42;16.48;;;;;;;;;;6259170;28;20299;-70
2023/09/12 00:31:00;;;;;;;23.98;15.45;;;;;;;;;;6258832;28;20304;-71
2023/09/12 00:34:04;;;;;;;23.00;14.73;;;;;;;;;;6258309;28;20303;-70
2023/09/12 00:37:09;;;;;;;26.08;15.20;;;;;;;;;;6276033;28;20303;-70
2023/09/12 00:40:14;;;;;;;28.48;15.98;;;;;;;;;;6257176;28;20315;-71
2023/09/12 00:43:18;;;;;;;24.08;14.85;;;;;;;;;;6257505;28;20303;-72
2023/09/12 00:46:23;;;;;;;24.27;14.05;;;;;;;;;;6258769;28;20307;-70
2023/09/12 00:49:27;;;;;;;20.52;13.57;;;;;;;;;;6258317;28;20311;-69
2023/09/12 00:52:34;;;;;;;24.88;14.10;;;;;;;;;;6258923;28;20299;-70
2023/09/12 00:55:40;;;;;;;25.45;14.43;;;;;;;;;;6257760;28;20299;-72
2023/09/12 00:58:45;;;;;;;27.10;14.90;;;;;;;;;;6258222;28;20331;-71
2023/09/12 01:01:49;;;;;;;24.65;14.65;;;;;;;;;;6258444;28;20300;-70
2023/09/12 01:04:53;;;;;;;22.98;13.60;;;;;;;;;;6258323;28;20299;-69
2023/09/12 01:08:00;;;;;;;27.30;14.27;;;;;;;;;;6257171;28;20303;-70
2023/09/12 01:11:05;;;;;;;25.25;14.70;;;;;;;;;;6258416;28;20307;-69
2023/09/12 01:14:09;;;;;;;19.17;13.40;;;;;;;;;;6257873;28;20299;-69
2023/09/12 01:17:13;;;;;;;20.00;13.02;;;;;;;;;;6258269;28;20307;-68
2023/09/12 01:20:20;;;;;;;20.50;13.25;;;;;;;;;;6256476;28;20308;-70
2023/09/12 01:23:36;;;;;;;26.45;13.55;;;;;;;;;;6256691;28;20592;-70
2023/09/12 01:26:48;;;;;;;18.67;12.90;;;;;;;;;;6273124;28;20296;-70
2023/09/12 01:29:57;;;;;;;18.88;13.18;;;;;;;;;;6273309;28;20295;-69
2023/09/12 01:33:03;;;;;;;19.63;13.18;;;;;;;;;;6255310;28;20592;-70
2023/09/12 01:36:07;;;;;;;20.75;12.45;;;;;;;;;;6257402;28;20592;-72
2023/09/12 01:39:11;;;;;;;21.95;12.60;;;;;;;;;;6253578;28;20311;-70
2023/09/12 01:42:17;;;;;;;13.73;11.52;;;;;;;;;;6257543;28;20240;-70
2023/09/12 01:45:22;;;;;;;17.30;12.13;;;;;;;;;;6256195;28;20296;-70
2023/09/12 01:48:33;;;;;;;15.68;12.75;;;;;;;;;;6255476;28;20319;-70
2023/09/12 01:51:37;;;;;;;14.15;11.50;;;;;;;;;;6255531;28;20287;-69
2023/09/12 01:54:42;;;;;;;13.45;11.48;;;;;;;;;;6256790;28;20291;-69
2023/09/12 01:57:47;;;;;;;15.77;11.52;;;;;;;;;;6257170;28;20592;-71
2023/09/12 02:00:52;;;;;;;13.43;11.65;;;;;;;;;;6272099;28;20303;-68
2023/09/12 02:03:58;;;;;;;14.43;11.43;;;;;;;;;;6271897;28;20314;-71
2023/09/12 02:07:05;;;;;;;12.98;11.07;;;;;;;;;;6273095;28;20307;-70
2023/09/12 02:10:09;;;;;;;15.60;11.18;;;;;;;;;;6276485;28;20310;-70
2023/09/12 02:13:14;;;;;;;18.15;11.38;;;;;;;;;;6276963;28;20292;-69
2023/09/12 02:16:19;;;;;;;12.30;10.80;;;;;;;;;;6277439;28;20299;-69
2023/09/12 02:19:23;;;;;;;13.52;11.02;;;;;;;;;;6260136;28;20295;-69
2023/09/12 02:22:27;;;;;;;13.15;10.80;;;;;;;;;;6261863;28;20311;-68
2023/09/12 02:25:30;;;;;;;17.52;11.82;;;;;;;;;;6261081;28;20341;-69
2023/09/12 02:28:34;;;;;;;14.82;11.23;;;;;;;;;;6261413;28;20303;-70
2023/09/12 02:31:40;;;;;;;14.88;10.95;;;;;;;;;;6260178;28;20291;-69
2023/09/12 02:34:44;;;;;;;16.45;11.93;;;;;;;;;;6276066;28;20334;-71
2023/09/12 02:37:48;;;;;;;13.65;11.30;;;;;;;;;;6260302;28;20309;-70
2023/09/12 02:40:51;;;;;;;16.20;11.43;;;;;;;;;;6274408;28;20331;-69
2023/09/12 02:43:55;;;;;;;15.98;11.90;;;;;;;;;;6260796;28;20303;-69
2023/09/12 02:47:01;;;;;;;14.63;11.05;;;;;;;;;;6259399;28;20303;-71
2023/09/12 02:50:06;;;;;;;15.20;11.15;;;;;;;;;;6275150;28;20303;-68
2023/09/12 02:53:09;;;;;;;17.02;11.27;;;;;;;;;;6259619;28;20291;-68
2023/09/12 02:56:13;;;;;;;18.75;12.10;;;;;;;;;;6258477;28;20486;-68
2023/09/12 02:59:17;;;;;;;13.18;10.65;;;;;;;;;;6260815;28;20572;-69
2023/09/12 03:02:23;;;;;;;15.50;10.93;;;;;;;;;;6258430;28;20291;-69
2023/09/12 03:05:27;;;;;;;15.18;11.95;;;;;;;;;;6260061;28;20342;-72
2023/09/12 03:08:31;;;;;;;15.88;11.65;;;;;;;;;;6258024;28;20308;-69
2023/09/12 03:11:35;;;;;;;11.50;10.30;;;;;;;;;;6260425;28;20295;-70
2023/09/12 03:14:38;;;;;;;11.45;10.25;;;;;;;;;;6257696;28;20596;-69
2023/09/12 03:17:43;;;;;;;11.93;10.68;;;;;;;;;;6257844;28;20415;-70
2023/09/12 03:20:47;;;;;;;10.70;9.60;;;;;;;;;;6274437;28;20311;-68
2023/09/12 03:23:52;;;;;;;13.20;9.90;;;;;;;;;;6258739;28;20287;-69
2023/09/12 03:26:56;;;;;;;13.48;10.95;;;;;;;;;;6259133;28;20299;-68
2023/09/12 03:29:59;;;;;;;12.98;10.65;;;;;;;;;;6258853;28;20304;-71
2023/09/12 03:33:06;;;;;;;12.05;10.75;;;;;;;;;;6258382;28;20303;-69
2023/09/12 03:36:11;;;;;;;12.15;10.95;;;;;;;;;;6274703;28;20305;-68
2023/09/12 03:39:15;;;;;;;12.40;10.80;;;;;;;;;;6255562;28;20307;-70
2023/09/12 03:42:19;;;;;;;11.80;10.60;;;;;;;;;;6258195;28;20397;-69
2023/09/12 03:45:23;;;;;;;11.38;10.25;;;;;;;;;;6259442;28;20319;-69
2023/09/12 03:48:30;;;;;;;14.15;10.98;;;;;;;;;;6258965;28;20288;-70
2023/09/12 03:51:34;;;;;;;13.32;11.18;;;;;;;;;;6274422;28;20344;-72
2023/09/12 03:54:38;;;;;;;13.35;10.70;;;;;;;;;;6259318;28;20604;-70
2023/09/12 03:57:42;;;;;;;12.55;11.20;;;;;;;;;;6259488;28;20307;-70
2023/09/12 04:00:46;;;;;;;13.35;10.68;;;;;;;;;;6259538;28;20307;-68
2023/09/12 04:03:52;;;;;;;13.32;10.82;;;;;;;;;;6258786;28;20571;-69
2023/09/12 04:06:55;;;;;;;11.68;10.48;;;;;;;;;;6259293;28;20600;-69
2023/09/12 04:09:59;;;;;;;10.27;9.27;;;;;;;;;;6258530;28;20454;-70
2023/09/12 04:13:04;;;;;;;12.73;9.52;;;;;;;;;;6257535;28;20303;-69
2023/09/12 04:16:07;;;;;;;10.23;9.27;;;;;;;;;;6258549;28;20300;-68
2023/09/12 04:19:13;;;;;;;14.68;10.38;;;;;;;;;;6258283;28;20295;-69
2023/09/12 04:22:17;;;;;;;12.55;10.43;;;;;;;;;;6257199;28;20303;-70
2023/09/12 04:25:23;;;;;;;16.27;10.68;;;;;;;;;;6256639;28;20311;-70
2023/09/12 04:28:27;;;;;;;11.65;10.45;;;;;;;;;;6258959;28;20323;-69
2023/09/12 04:31:31;;;;;;;10.55;9.45;;;;;;;;;;6257088;28;20326;-71
2023/09/12 04:34:36;;;;;;;12.82;9.80;;;;;;;;;;6256217;28;20327;-69
2023/09/12 04:37:40;;;;;;;11.90;10.23;;;;;;;;;;6273371;28;20331;-69
2023/09/12 04:40:44;;;;;;;13.30;10.77;;;;;;;;;;6253863;28;20372;-70
2023/09/12 04:43:48;;;;;;;12.50;9.82;;;;;;;;;;6256377;28;20303;-71
2023/09/12 04:46:52;;;;;;;16.27;10.45;;;;;;;;;;6257036;28;20320;-70
2023/09/12 04:49:57;;;;;;;11.93;10.73;;;;;;;;;;6255919;28;20292;-69
2023/09/12 04:53:01;;;;;;;12.68;10.05;;;;;;;;;;6255625;28;20295;-68
2023/09/12 04:56:06;;;;;;;12.38;9.98;;;;;;;;;;6256130;28;20296;-68
2023/09/12 04:59:10;;;;;;;11.38;10.23;;;;;;;;;;6257595;28;20292;-68
2023/09/12 05:02:13;;;;;;;12.70;10.77;;;;;;;;;;6258197;28;20462;-70
2023/09/12 05:05:19;;;;;;;12.18;10.90;;;;;;;;;;6255701;28;20323;-70
2023/09/12 05:08:24;;;;;;;15.43;11.38;;;;;;;;;;6256097;28;20580;-68
2023/09/12 05:11:28;;;;;;;17.48;11.00;;;;;;;;;;6257648;28;20307;-71
2023/09/12 05:14:31;;;;;;;16.67;12.65;;;;;;;;;;6258389;28;20315;-69
2023/09/12 05:17:35;;;;;;;15.88;12.48;;;;;;;;;;6257646;28;20315;-69
2023/09/12 05:20:40;;;;;;;18.55;13.48;;;;;;;;;;6271624;28;20244;-68
2023/09/12 05:23:44;;;;;;;17.58;12.63;;;;;;;;;;6271878;28;20303;-69
2023/09/12 05:26:49;;;;;;;17.20;13.23;;;;;;;;;;6257703;28;20307;-69
2023/09/12 05:29:53;;;;;;;20.13;13.95;;;;;;;;;;6254933;28;20308;-69
2023/09/12 05:32:57;;;;;;;18.98;14.02;;;;;;;;;;6254945;28;20311;-69
2023/09/12 05:36:03;;;;;;;19.67;13.50;;;;;;;;;;6270924;28;20395;-68
2023/09/12 05:39:06;;;;;;;21.05;12.93;;;;;;;;;;6270411;28;20299;-68
2023/09/12 05:42:11;;;;;;;21.58;13.43;;;;;;;;;;6255211;28;20291;-69
2023/09/12 05:45:15;;;;;;;16.10;13.20;;;;;;;;;;6257073;28;20287;-69
2023/09/12 05:48:19;;;;;;;20.15;13.30;;;;;;;;;;6272801;28;20492;-69
2023/09/12 05:51:24;;;;;;;17.85;12.95;;;;;;;;;;6255448;28;20311;-68
2023/09/12 05:54:28;;;;;;;18.35;13.38;;;;;;;;;;6272161;28;20300;-68
2023/09/12 05:57:33;;;;;;;17.17;12.90;;;;;;;;;;6257159;28;20295;-69
2023/09/12 06:00:37;;;;;;;18.38;12.98;;;;;;;;;;6271909;28;20315;-69
2023/09/12 06:03:41;;;;;;;15.07;12.50;;;;;;;;;;6255554;28;20302;-68
2023/09/12 06:06:47;;;;;;;14.23;12.00;;;;;;;;;;6257021;28;20307;-70
2023/09/12 06:09:50;;;;;;;16.27;11.48;;;;;;;;;;6256895;28;20363;-68
2023/09/12 06:12:54;;;;;;;13.40;10.75;;;;;;;;;;6256984;28;20291;-69
2023/09/12 06:15:58;;;;;;;11.50;10.38;;;;;;;;;;6254601;28;20291;-69
2023/09/12 06:19:02;;;;;;;11.45;9.85;;;;;;;;;;6257378;28;20319;-69
2023/09/12 06:22:07;;;;;;;11.48;10.30;;;;;;;;;;6256866;28;20310;-69
2023/09/12 06:25:11;;;;;;;12.90;10.48;;;;;;;;;;6256399;28;20477;-69
2023/09/12 06:28:26;;;;;;;13.48;10.43;;;;;;;;;;6257116;28;20324;-69
2023/09/12 06:31:29;;;;;;;11.93;10.20;;;;;;;;;;6271078;28;20635;-69
2023/09/12 06:34:33;;;;;;;11.73;10.52;;;;;;;;;;6256362;28;20311;-70
2023/09/12 06:37:39;;;;;;;11.15;10.05;;;;;;;;;;6256608;28;20580;-70
2023/09/12 06:40:43;;;;;;;14.00;10.63;;;;;;;;;;6254320;28;20499;-69
2023/09/12 06:43:47;;;;;;;10.40;9.50;;;;;;;;;;6256410;28;20308;-69
2023/09/12 06:46:51;;;;;;;10.18;9.18;;;;;;;;;;6256918;28;20307;-70
2023/09/12 06:49:55;;;;;;;10.18;9.13;;;;;;;;;;6255901;28;20572;-70
2023/09/12 06:53:00;;;;;;;9.80;8.98;;;;;;;;;;6257082;28;20323;-71
2023/09/12 06:56:04;;;;;;;9.65;8.43;;;;;;;;;;6260599;28;20304;-69
2023/09/12 06:59:08;;;;;;;9.70;8.82;;;;;;;;;;6260297;28;20303;-69
2023/09/12 07:02:12;;;;;;;9.55;8.60;;;;;;;;;;6260757;28;20307;-69
2023/09/12 07:05:16;;;;;;;9.00;8.40;;;;;;;;;;6259881;28;20252;-70
2023/09/12 07:08:22;;;;;;;10.38;8.10;;;;;;;;;;6260255;28;20303;-70
2023/09/12 07:11:25;;;;;;;9.60;8.73;;;;;;;;;;6260098;28;20303;-69
2023/09/12 07:14:31;;;;;;;10.20;9.20;;;;;;;;;;6260021;28;20292;-69
2023/09/12 07:17:36;;;;;;;10.50;8.90;;;;;;;;;;6260224;28;20299;-68
2023/09/12 07:20:40;;;;;;;9.48;8.68;;;;;;;;;;6259806;28;20299;-70
2023/09/12 07:23:45;;;;;;;10.40;9.25;;;;;;;;;;6259893;28;20304;-69
2023/09/12 07:26:49;;;;;;;11.98;8.85;;;;;;;;;;6260644;28;20299;-70
2023/09/12 07:29:52;;;;;;;10.15;9.25;;;;;;;;;;6259642;28;20625;-69
2023/09/12 07:32:56;;;;;;;10.13;9.07;;;;;;;;;;6260091;28;20316;-69
2023/09/12 07:36:02;;;;;;;10.25;9.45;;;;;;;;;;6259133;28;20295;-71
2023/09/12 07:39:08;;;;;;;10.98;10.02;;;;;;;;;;6257697;28;20386;-69
2023/09/12 07:42:11;;;;;;;11.40;10.23;;;;;;;;;;6259512;28;20284;-70
2023/09/12 07:45:15;;;;;;;10.77;9.68;;;;;;;;;;6259685;28;20348;-69
2023/09/12 07:48:19;;;;;;;12.50;10.80;;;;;;;;;;6258873;28;20303;-69
2023/09/12 07:51:24;;;;;;;13.52;10.43;;;;;;;;;;6259000;28;20299;-69
2023/09/12 07:54:30;;;;;;;12.80;11.32;;;;;;;;;;6258825;28;20295;-69
2023/09/12 07:57:36;;;;;;;11.30;10.32;;;;;;;;;;6259572;28;20299;-70
2023/09/12 08:00:40;;;;;;;11.95;10.35;;;;;;;;;;6258800;28;20588;-69
2023/09/12 08:03:44;;;;;;;11.70;10.60;;;;;;;;;;6258262;28;20292;-69
2023/09/12 08:06:48;;;;;;;11.55;10.38;;;;;;;;;;6259213;28;20311;-70
2023/09/12 08:10:02;;;;;;;10.60;9.65;;;;;;;;;;6258795;28;20312;-69
2023/09/12 08:13:06;;;;;;;14.02;11.25;;;;;;;;;;6259272;28;20303;-70
2023/09/12 08:16:10;;;;;;;14.50;9.85;;;;;;;;;;6258494;28;20315;-69
2023/09/12 08:19:14;;;;;;;14.90;11.13;;;;;;;;;;6258374;28;20299;-70
2023/09/12 08:22:21;;;;;;;13.75;12.15;;;;;;;;;;6258741;28;20303;-69
2023/09/12 08:25:26;;;;;;;21.65;12.27;;;;;;;;;;6258325;28;20308;-68
2023/09/12 08:28:30;;;;;;;21.80;13.02;;;;;;;;;;6258220;28;20348;-68
2023/09/12 08:31:34;;;;;;;17.20;13.27;;;;;;;;;;6258589;28;20604;-69
2023/09/12 08:34:38;;;;;;;13.82;12.40;;;;;;;;;;6257727;28;20304;-69
2023/09/12 08:37:42;;;;;;;18.27;13.57;;;;;;;;;;6258524;28;20291;-68
2023/09/12 08:40:50;;;;;;;15.45;13.85;;;;;;;;;;6255975;28;20613;-69
2023/09/12 08:43:55;;;;;;;20.23;14.00;;;;;;;;;;6257887;28;20287;-69
2023/09/12 08:46:59;;;;;;;17.10;14.25;;;;;;;;;;6258511;28;20303;-68
2023/09/12 08:50:04;;;;;;;21.20;13.82;;;;;;;;;;6256954;28;20441;-69
2023/09/12 08:53:08;;;;;;;20.92;13.68;;;;;;;;;;6257867;28;20492;-69
2023/09/12 08:56:13;;;;;;;15.40;13.75;;;;;;;;;;6233692;28;20295;-71
2023/09/12 08:59:17;;;;;;;22.10;13.60;;;;;;;;;;6231504;28;20520;-68
2023/09/12 09:02:22;;;;;;;16.15;13.02;;;;;;;;;;6232966;28;20417;-68
2023/09/12 09:05:28;;;;;;;19.80;12.98;;;;;;;;;;6232786;28;20474;-69
2023/09/12 09:08:32;;;;;;;16.10;12.40;;;;;;;;;;6233007;28;20315;-69
2023/09/12 09:11:38;;;;;;;15.43;11.75;;;;;;;;;;6246463;28;20310;-70
2023/09/12 09:14:42;;;;;;;14.63;10.68;;;;;;;;;;6257415;28;20304;-68
2023/09/12 09:17:46;;;;;;;13.00;11.18;;;;;;;;;;6257497;28;20295;-70
2023/09/12 09:20:51;;;;;;;13.13;11.35;;;;;;;;;;6257460;28;20315;-69
2023/09/12 09:23:55;;;;;;;13.48;10.55;;;;;;;;;;6257461;28;20303;-68
2023/09/12 09:27:00;;;;;;;12.23;10.32;;;;;;;;;;6256826;28;20346;-71
2023/09/12 09:30:05;;;;;;;13.25;11.13;;;;;;;;;;6256589;28;20581;-69
2023/09/12 09:33:09;;;;;;;13.48;11.75;;;;;;;;;;6257503;28;20323;-68
2023/09/12 09:36:13;;;;;;;14.73;11.18;;;;;;;;;;6256917;28;20307;-69
2023/09/12 09:39:18;;;;;;;11.95;10.73;;;;;;;;;;6255155;28;20291;-69
2023/09/12 09:42:24;;;;;;;12.45;11.15;;;;;;;;;;6257340;28;20308;-68
2023/09/12 09:45:28;;;;;;;11.63;10.43;;;;;;;;;;6256705;28;20304;-67
2023/09/12 09:48:32;;;;;;;13.15;11.68;;;;;;;;;;6256519;28;20619;-69
2023/09/12 09:51:42;;;;;;;12.55;11.35;;;;;;;;;;6257012;28;20299;-69
2023/09/12 09:54:46;;;;;;;12.20;10.65;;;;;;;;;;6256271;28;20315;-69
2023/09/12 09:57:53;;;;;;;12.20;10.98;;;;;;;;;;6257216;28;20307;-70
2023/09/12 10:00:57;;;;;;;10.68;9.70;;;;;;;;;;6256555;28;20331;-69
2023/09/12 10:04:02;;;;;;;14.63;10.95;;;;;;;;;;6256091;28;20291;-69
2023/09/12 10:07:06;;;;;;;11.90;10.80;;;;;;;;;;6256867;28;20307;-70
2023/09/12 10:10:13;;;;;;;13.77;10.18;;;;;;;;;;6254916;28;20465;-69
2023/09/12 10:13:20;;;;;;;16.80;11.15;;;;;;;;;;6256887;28;20330;-69
2023/09/12 10:16:25;;;;;;;14.73;11.10;;;;;;;;;;6256859;28;20299;-70
2023/09/12 10:19:33;;;;;;;13.27;11.30;;;;;;;;;;6256950;28;20379;-69
2023/09/12 10:22:40;;;;;;;17.58;12.85;;;;;;;;;;6256658;28;20307;-69
2023/09/12 10:25:44;;;;;;;14.68;11.73;;;;;;;;;;6256325;28;20510;-69
2023/09/12 10:28:52;;;;;;;15.32;11.55;;;;;;;;;;6258233;28;20315;-69
2023/09/12 10:31:56;;;;;;;13.48;11.27;;;;;;;;;;6261675;28;20311;-69
2023/09/12 10:35:01;;;;;;;13.45;12.05;;;;;;;;;;6261060;28;20307;-71
2023/09/12 10:38:06;;;;;;;35.55;19.25;;;;;;;;;;6259926;28;20510;-69
2023/09/12 10:41:13;;;;;;;41.10;14.20;;;;;;;;;;6259300;28;20303;-70
2023/09/12 10:44:19;;;;;;;18.67;12.80;;;;;;;;;;6260484;28;20315;-69
2023/09/12 10:47:23;;;;;;;25.10;13.45;;;;;;;;;;6261079;28;20321;-69
2023/09/12 10:50:28;;;;;;;19.67;13.43;;;;;;;;;;6261021;28;20307;-69
2023/09/12 10:53:33;;;;;;;20.15;14.27;;;;;;;;;;6260600;28;20303;-69
2023/09/12 10:56:37;;;;;;;21.58;14.98;;;;;;;;;;6261237;28;20405;-69
2023/09/12 11:00:13;;;;;;;62.35;16.52;;;;;;;;;;6260848;28;20311;-69
2023/09/12 11:03:39;;;;;;;16.77;14.70;;;;;;;;;;6260461;28;20287;-69
2023/09/12 11:06:44;;;;;;;21.38;14.98;;;;;;;;;;6260351;28;20291;-69
2023/09/12 11:10:18;;;;;;;22.25;16.05;;;;;;;;;;6260336;28;20379;-68
2023/09/12 11:13:23;;;;;;;22.63;15.48;;;;;;;;;;6236090;28;20319;-68
2023/09/12 11:16:28;;;;;;;20.45;15.10;;;;;;;;;;6235434;28;20431;-69
2023/09/12 11:19:44;;;;;;;18.25;15.15;;;;;;;;;;6235524;28;20292;-69
2023/09/12 11:22:48;;;;;;;20.17;14.65;;;;;;;;;;6235796;28;20292;-69
2023/09/12 11:26:04;;;;;;;17.02;13.70;;;;;;;;;;6235651;28;20300;-70
2023/09/12 11:29:12;;;;;;;16.05;13.45;;;;;;;;;;6235318;28;20300;-69
2023/09/12 11:32:31;;;;;;;17.80;12.40;;;;;;;;;;6235246;28;20320;-69
2023/09/12 11:35:38;;;;;;;15.88;11.95;;;;;;;;;;6235285;28;20292;-69
2023/09/12 11:38:41;;;;;;;12.68;11.38;;;;;;;;;;6233694;28;20296;-73
2023/09/12 11:41:45;;;;;;;15.60;12.85;;;;;;;;;;6235739;28;20300;-68
2023/09/12 11:44:50;;;;;;;23.50;12.25;;;;;;;;;;6251920;28;20295;-68
2023/09/12 11:47:56;;;;;;;19.35;12.55;;;;;;;;;;6260031;28;20299;-67
2023/09/12 11:51:01;;;;;;;18.38;12.35;;;;;;;;;;6258948;28;20288;-69
2023/09/12 11:54:05;;;;;;;18.05;11.25;;;;;;;;;;6259017;28;20311;-70
2023/09/12 11:57:10;;;;;;;15.73;12.35;;;;;;;;;;6259712;28;20252;-68
2023/09/12 12:00:19;;;;;;;15.77;11.77;;;;;;;;;;6259775;28;20304;-68
2023/09/12 12:03:26;;;;;;;17.85;12.32;;;;;;;;;;6259908;28;20364;-69
2023/09/12 12:06:31;;;;;;;18.38;12.15;;;;;;;;;;6258729;28;20295;-70
2023/09/12 12:09:35;;;;;;;13.63;12.05;;;;;;;;;;6258675;28;20323;-69
2023/09/12 12:12:39;;;;;;;15.63;12.60;;;;;;;;;;6259049;28;20299;-69
2023/09/12 12:15:43;;;;;;;14.90;12.68;;;;;;;;;;6258619;28;20435;-69
2023/09/12 12:18:54;;;;;;;13.27;11.93;;;;;;;;;;6258867;28;20291;-70
2023/09/12 12:21:57;;;;;;;16.17;12.30;;;;;;;;;;6259042;28;20295;-70
2023/09/12 12:25:06;;;;;;;17.27;12.98;;;;;;;;;;6258192;28;20331;-68
2023/09/12 12:28:10;;;;;;;15.40;12.27;;;;;;;;;;6258906;28;20304;-70
2023/09/12 12:31:14;;;;;;;15.55;12.00;;;;;;;;;;6258349;28;20295;-70
2023/09/12 12:34:22;;;;;;;14.30;11.95;;;;;;;;;;6257968;28;20303;-69
2023/09/12 12:37:46;;;;;;;13.32;11.93;;;;;;;;;;6258321;28;20330;-70
2023/09/12 12:41:00;;;;;;;14.05;12.50;;;;;;;;;;6256357;28;20544;-68
2023/09/12 12:44:04;;;;;;;18.17;12.63;;;;;;;;;;6257687;28;20307;-70
2023/09/12 12:47:11;;;;;;;14.48;12.82;;;;;;;;;;6258678;28;20493;-69
2023/09/12 12:50:19;;;;;;;15.93;13.70;;;;;;;;;;6257510;28;20296;-69
2023/09/12 12:53:38;;;;;;;16.13;14.40;;;;;;;;;;6258442;28;20299;-69
2023/09/12 12:56:55;;;;;;;15.00;13.35;;;;;;;;;;6257156;28;20300;-69
2023/09/12 12:59:59;;;;;;;14.30;12.85;;;;;;;;;;6257573;28;20477;-69
2023/09/12 13:03:04;;;;;;;19.48;13.35;;;;;;;;;;6257069;28;20348;-68
2023/09/12 13:06:13;;;;;;;22.48;13.73;;;;;;;;;;6257310;28;20291;-68
2023/09/12 13:09:17;;;;;;;18.65;13.02;;;;;;;;;;6257373;28;20316;-69
2023/09/12 13:12:21;;;;;;;14.48;12.90;;;;;;;;;;6257367;28;20302;-69
2023/09/12 13:15:25;;;;;;;14.32;12.68;;;;;;;;;;6256892;28;20296;-71
2023/09/12 13:18:29;;;;;;;17.40;13.05;;;;;;;;;;6257380;28;20362;-68
2023/09/12 13:21:35;;;;;;;18.25;14.43;;;;;;;;;;6272013;28;20318;-69
2023/09/12 13:24:39;;;;;;;16.30;14.02;;;;;;;;;;6257478;28;20243;-69
2023/09/12 13:27:42;;;;;;;15.20;13.70;;;;;;;;;;6257086;28;20287;-68
2023/09/12 13:30:46;;;;;;;15.20;13.18;;;;;;;;;;6256882;28;20310;-69
2023/09/12 13:33:50;;;;;;;18.85;12.68;;;;;;;;;;6256747;28;20307;-68
2023/09/12 13:36:56;;;;;;;15.60;13.88;;;;;;;;;;6257310;28;20315;-69
2023/09/12 13:40:14;;;;;;;23.80;13.57;;;;;;;;;;6255108;28;20320;-68
2023/09/12 13:43:18;;;;;;;16.05;13.23;;;;;;;;;;6256937;28;20587;-68
2023/09/12 13:46:22;;;;;;;17.25;13.85;;;;;;;;;;6256357;28;20295;-68
2023/09/12 13:49:26;;;;;;;19.98;13.80;;;;;;;;;;6256800;28;20289;-70
2023/09/12 13:52:31;;;;;;;17.92;13.90;;;;;;;;;;6257144;28;20295;-67
2023/09/12 13:55:35;;;;;;;25.52;14.80;;;;;;;;;;6256277;28;20307;-69
2023/09/12 13:58:59;;;;;;;22.42;13.98;;;;;;;;;;6256442;28;20299;-71
2023/09/12 14:02:03;;;;;;;25.08;13.73;;;;;;;;;;6258994;28;20295;-69
2023/09/12 14:05:08;;;;;;;15.73;13.93;;;;;;;;;;6264248;28;20358;-70
2023/09/12 14:08:19;;;;;;;24.40;14.52;;;;;;;;;;6265143;28;20295;-69
2023/09/12 14:11:23;;;;;;;15.77;14.18;;;;;;;;;;6264671;28;20426;-68
2023/09/12 14:14:37;;;;;;;16.85;13.32;;;;;;;;;;6264598;28;20310;-70
2023/09/12 14:17:42;;;;;;;19.05;14.10;;;;;;;;;;6264700;28;20319;-68
2023/09/12 14:20:58;;;;;;;16.35;13.32;;;;;;;;;;6264426;28;20311;-69
2023/09/12 14:24:06;;;;;;;18.77;13.10;;;;;;;;;;6263751;28;20323;-69
2023/09/12 14:27:10;;;;;;;21.42;13.98;;;;;;;;;;6264968;28;20257;-69
2023/09/12 14:30:34;;;;;;;19.73;13.60;;;;;;;;;;6263876;28;20384;-70
2023/09/12 14:33:39;;;;;;;20.00;13.35;;;;;;;;;;6264493;28;20332;-68
2023/09/12 14:36:45;;;;;;;17.27;13.50;;;;;;;;;;6264372;28;20484;-68
2023/09/12 14:39:51;;;;;;;18.42;13.27;;;;;;;;;;6262652;28;20311;-69
2023/09/12 14:42:54;;;;;;;20.42;12.73;;;;;;;;;;6264779;28;20568;-71
2023/09/12 14:46:00;;;;;;;15.60;12.07;;;;;;;;;;6264163;28;20296;-69
2023/09/12 14:49:04;;;;;;;15.68;12.20;;;;;;;;;;6264318;28;20291;-69
2023/09/12 14:52:08;;;;;;;14.30;12.82;;;;;;;;;;6265106;28;20307;-70
2023/09/12 14:55:25;;;;;;;13.88;12.45;;;;;;;;;;6264438;28;20312;-69
2023/09/12 14:58:29;;;;;;;13.48;12.05;;;;;;;;;;6264387;28;20303;-68
2023/09/12 15:01:34;;;;;;;14.70;12.43;;;;;;;;;;6263856;28;20429;-71
2023/09/12 15:04:38;;;;;;;14.32;11.05;;;;;;;;;;6263873;28;20308;-70
2023/09/12 15:07:42;;;;;;;14.13;12.07;;;;;;;;;;6264569;28;20295;-70
2023/09/12 15:10:47;;;;;;;18.63;11.77;;;;;;;;;;6263832;28;20295;-70
2023/09/12 15:13:51;;;;;;;16.73;12.05;;;;;;;;;;6261917;28;22013;-68
2023/09/12 15:16:56;;;;;;;15.48;12.05;;;;;;;;;;6260729;28;20300;-71
2023/09/12 15:20:00;;;;;;;15.25;12.20;;;;;;;;;;6259786;28;20292;-68
2023/09/12 15:23:05;;;;;;;14.95;11.65;;;;;;;;;;6260405;28;20299;-69
2023/09/12 15:26:10;;;;;;;18.50;12.30;;;;;;;;;;6259472;28;20319;-68
2023/09/12 15:29:14;;;;;;;18.75;12.00;;;;;;;;;;6259546;28;20304;-70
2023/09/12 15:32:19;;;;;;;18.08;12.50;;;;;;;;;;6259838;28;20312;-69
2023/09/12 15:35:22;;;;;;;21.85;13.60;;;;;;;;;;6259653;28;20600;-68
2023/09/12 15:38:28;;;;;;;24.25;12.73;;;;;;;;;;6259859;28;20549;-68
2023/09/12 15:41:34;;;;;;;25.25;13.65;;;;;;;;;;6272410;28;20307;-71
2023/09/12 15:44:37;;;;;;;25.38;13.88;;;;;;;;;;6258930;28;20407;-69
2023/09/12 15:48:01;;;;;;;20.63;13.30;;;;;;;;;;6258986;28;20288;-67
2023/09/12 15:51:05;;;;;;;21.88;13.30;;;;;;;;;;6259698;28;20311;-68
2023/09/12 15:54:09;;;;;;;23.05;13.02;;;;;;;;;;6258758;28;20489;-69
2023/09/12 15:57:14;;;;;;;23.60;12.75;;;;;;;;;;6257574;28;20271;-69
2023/09/12 16:00:18;;;;;;;17.30;12.35;;;;;;;;;;6259033;28;20299;-67
2023/09/12 16:03:22;;;;;;;13.50;11.82;;;;;;;;;;6259125;28;20556;-68
2023/09/12 16:06:26;;;;;;;13.98;12.27;;;;;;;;;;6258481;28;20303;-69
2023/09/12 16:09:30;;;;;;;19.42;12.57;;;;;;;;;;6258034;28;20296;-68
2023/09/12 16:12:35;;;;;;;24.80;13.07;;;;;;;;;;6258521;28;20303;-69
2023/09/12 16:15:39;;;;;;;21.85;13.00;;;;;;;;;;6259026;28;20576;-69
2023/09/12 16:18:43;;;;;;;31.13;13.48;;;;;;;;;;6258221;28;20508;-68
2023/09/12 16:21:47;;;;;;;19.77;13.68;;;;;;;;;;6259007;28;20589;-68
2023/09/12 16:24:50;;;;;;;23.77;13.80;;;;;;;;;;6257757;28;20307;-70
2023/09/12 16:27:56;;;;;;;23.35;14.73;;;;;;;;;;6258107;28;20311;-69
2023/09/12 16:30:59;;;;;;;18.88;14.68;;;;;;;;;;6258221;28;20295;-70
2023/09/12 16:34:03;;;;;;;19.00;14.73;;;;;;;;;;6258144;28;20311;-69
2023/09/12 16:37:07;;;;;;;15.77;13.55;;;;;;;;;;6258503;28;20315;-71
2023/09/12 16:40:11;;;;;;;19.25;13.73;;;;;;;;;;6255928;28;20312;-70
2023/09/12 16:43:17;;;;;;;19.73;14.20;;;;;;;;;;6273799;28;20299;-71
2023/09/12 16:46:21;;;;;;;15.45;13.10;;;;;;;;;;6257785;28;20299;-70
2023/09/12 16:49:24;;;;;;;15.65;13.98;;;;;;;;;;6258141;28;20358;-68
2023/09/12 16:52:29;;;;;;;21.13;14.18;;;;;;;;;;6258321;28;20395;-67
2023/09/12 16:55:34;;;;;;;20.25;13.85;;;;;;;;;;6257573;28;20354;-68
2023/09/12 16:58:40;;;;;;;15.98;13.00;;;;;;;;;;6257419;28;20308;-69
2023/09/12 17:01:44;;;;;;;14.07;12.60;;;;;;;;;;6257778;28;20493;-70
2023/09/12 17:04:48;;;;;;;18.42;13.85;;;;;;;;;;6254454;28;20307;-66
2023/09/12 17:07:51;;;;;;;15.45;13.77;;;;;;;;;;6257816;28;20303;-69
2023/09/12 17:10:56;;;;;;;18.15;14.07;;;;;;;;;;6257298;28;20300;-71
2023/09/12 17:14:01;;;;;;;16.55;14.77;;;;;;;;;;6257387;28;20295;-69
2023/09/12 17:17:05;;;;;;;20.17;15.48;;;;;;;;;;6257725;28;20311;-70
2023/09/12 17:20:10;;;;;;;18.77;15.68;;;;;;;;;;6257165;28;20298;-69
2023/09/12 17:23:14;;;;;;;24.27;17.05;;;;;;;;;;6257701;28;20502;-69
2023/09/12 17:26:17;;;;;;;22.80;17.73;;;;;;;;;;6257165;28;20705;-68
2023/09/12 17:29:23;;;;;;;22.63;18.10;;;;;;;;;;6257279;28;20304;-68
2023/09/12 17:32:29;;;;;;;24.05;18.80;;;;;;;;;;6257464;28;20295;-72
2023/09/12 17:35:33;;;;;;;23.38;19.77;;;;;;;;;;6257203;28;20303;-68
2023/09/12 17:38:37;;;;;;;25.88;20.08;;;;;;;;;;6256541;28;20307;-71
2023/09/12 17:41:41;;;;;;;30.17;20.35;;;;;;;;;;6256695;28;20484;-68
2023/09/12 17:44:46;;;;;;;31.85;20.95;;;;;;;;;;6256555;28;20298;-69
2023/09/12 17:47:50;;;;;;;27.30;19.83;;;;;;;;;;6257182;28;20324;-68
2023/09/12 17:50:54;;;;;;;26.27;19.80;;;;;;;;;;6256600;28;20303;-69
2023/09/12 17:53:58;;;;;;;26.98;19.83;;;;;;;;;;6256173;28;20555;-68
2023/09/12 17:57:02;;;;;;;23.73;18.55;;;;;;;;;;6256274;28;20553;-67
2023/09/12 18:00:08;;;;;;;28.30;20.15;;;;;;;;;;6256667;28;20303;-68